Flight Track Log - Related Links

Times and Time Zones

All times are in EDT time to prevent confusion due to time zone crossing. See the N919VT flight status page for this flight to view local times or setup timezone preferences in your user account.

Time Position Orientation Groundspeed Altitude Reporting Facility
EDT Latitude Longitude Course Direction KTS MPH feet Rate Location/Type
Sun 02:18:44 PM 41.2722 -71.9850 233° Southwest 89 102 1,100  Level Boston Center
Sun 02:19:15 PM 41.2656 -71.9969 233° Southwest 89 102 1,200 -65 Climbing Boston Center
Sun 02:20:16 PM 41.2492 -72.0192 226° Southwest 85 98 1,000 52 Descending Boston Center
Sun 02:21:10 PM 41.2425 -72.0542 256° West 113 130 1,300 157 Climbing Boston Center
Sun 02:22:11 PM 41.2342 -72.0828 249° West 90 104 1,300 98 Level Boston Center
Sun 02:23:12 PM 41.2261 -72.1114 249° West 91 105 1,500 146 Climbing Boston Center
Sun 02:24:14 PM 41.2158 -72.1389 244° Southwest 84 97 1,600 148 Climbing Boston Center
Sun 02:25:14 PM 41.2056 -72.1667 244° Southwest 83 96 1,800 83 Climbing Boston Center
Sun 02:25:26 PM 41.2033 -72.1719 241° Southwest 86 99 1,700 -82 Descending Boston Center
Sun 02:26:27 PM 41.1925 -72.1997 243° Southwest 86 99 1,700  Level Boston Center
Sun 02:28:00 PM 41.1726 -72.2641 248° West  Level FlightAware Approximate
Sun 02:35:00 PM 41.0640 -72.5428 242° Southwest  Level FlightAware Approximate
Sun 02:36:00 PM 41.0455 -72.5894 242° Southwest  Level FlightAware Approximate
Sun 02:37:00 PM 41.0269 -72.6360 242° Southwest  Level FlightAware Approximate
Sun 02:38:00 PM 41.0084 -72.6826 242° Southwest  Level FlightAware Approximate
Sun 02:39:00 PM 40.9898 -72.7291 242° Southwest  Level FlightAware Approximate
Sun 02:40:00 PM 40.9711 -72.7756 242° Southwest  Level FlightAware Approximate
Sun 02:41:00 PM 40.9525 -72.8221 242° Southwest  Level FlightAware Approximate
Sun 02:42:00 PM 40.9339 -72.8686 242° Southwest  Level FlightAware Approximate
Sun 02:43:00 PM 40.9152 -72.9150 242° Southwest  Level FlightAware Approximate
Sun 02:44:00 PM 40.8965 -72.9614 242° Southwest  Level FlightAware Approximate
Sun 02:45:00 PM 40.8778 -73.0078 242° Southwest  Level FlightAware Approximate
Sun 02:46:00 PM 40.8591 -73.0541 242° Southwest  Level FlightAware Approximate
Sun 02:47:00 PM 40.8404 -73.1005 242° Southwest  Level FlightAware Approximate
Sun 02:48:00 PM 40.8216 -73.1468 242° Southwest  Level FlightAware Approximate
Sun 02:49:00 PM 40.8028 -73.1930 242° Southwest  Level FlightAware Approximate
Sun 02:50:00 PM 40.7834 -73.2388 241° Southwest  Level FlightAware Approximate
Sun 02:51:00 PM 40.7638 -73.2845 241° Southwest  Level FlightAware Approximate
Sun 02:52:00 PM 40.7500 -73.3321 270° West  Level FlightAware Approximate
Sun 02:53:00 PM 40.7286 -73.3761 237° Southwest  Level FlightAware Approximate
Sun 02:54:00 PM 40.7167 -73.4000 237° Southwest  Level FlightAware Approximate
Sun 02:55:00 PM 40.7288 -73.4134 180° South  Level Estimated
Sun 02:56:00 PM 40.7288 -73.4134 237° Southwest  Level Estimated
Sun 02:57:00 PM 40.7288 -73.4134 140° Southeast  Level Estimated
Sun 02:58:00 PM 40.7288 -73.4134 237° Southwest  Level Estimated

Login

Don't have an account? Register now (free) for customized features, flight alerts, and more!